Jacinto, Brazil
Current Conditions -  °F | °C
As of 5:00 PM on Thursday 23 Oct 2014 (Local Time) from SBPS Reporting Station
Overcast Overcast  
Wind Chill: 73°   Ceiling: 3000
Heat Index: 73°   Visibility: 6mi
Dew Point: 66°   Wind: 6mph
Humidity: 78%   Direction: 160°SSE
Pressure: 30.03"   Gusts: NA
Location:  16.14°S, 40.29°W
Report Text: SBPS 231900Z 16005KT 9999 OVC030 23/19 Q1017
Loading
Personal Weather Stations






























Interactive Weather Map
Tropical Storm Tracking
New forecast layout! Learn more

10-Day Weather Forecast

Advertisements
Track Severe Weather on mobile